QUAO2: Spring River Near Quapaw, OK

Data processed at Thu Jan 04 2018 23:21


All information presented herein is the property of the government of the United States of America and may be revised or deleted at any time without prior notice.
Dissemination of this information without the expressed written consent of the Public Affairs Office, Tulsa District U.S. Army Corps of Engineers is strictly prohibited.
These data are gathered electronically and, as presented, have not undergone any form of quality control. These data are not guaranteed to be valid or correct.
Go to home page.
Go to station list.

Upstream stations:

Downstream station:
Previous Day
Next Day
Current Day
    
SHEF ID:       QUAO2     Spring River near Quapaw, OK
STATION TYPE:  

               PRECIP     STAGE  STAGE(2)  RIV-FLOW  BAT-LOAD
                   in        ft        ft       cfs      volt
              Ccp-Rev   Ccp-Rev   Ccp-Rev   Ccp-Rev   Ccp-Rev
(US/Central)
01/02 00:00      0.00     42.69      5.73    189685     12.41
01/02 01:00      0.00     42.19      6.04    184502     12.41
01/02 02:00      0.00     42.20      5.91    184605     12.41
01/02 03:00      0.00     42.16      6.00    184193     12.41
01/02 04:00      0.00     40.28      5.91    165396     12.33
01/02 05:00      0.00     39.55      5.93    158382     12.33
01/02 06:00      0.00     39.81      5.88    160862     12.33
01/02 07:00      0.00     39.92      5.84    161917     12.25
01/02 08:00      0.00     40.11      5.88    163748     12.25
01/02 09:00      0.00     40.50      5.57    167541     12.25
01/02 10:00      0.00     41.11      5.86    173564     12.57
01/02 11:00      0.00     41.33      5.92    175764     13.37
01/02 12:00      0.00     41.72      5.99    179699     13.37
01/02 13:00      0.00     41.82      6.00    180715     13.37
01/02 14:00      0.00     41.83      5.98    180817     13.37
01/02 15:00      0.00     41.91      5.93    181633     13.37
01/02 16:00      0.00     41.88      5.87    181326     13.29
01/02 17:00      0.00     41.60      5.92    178483     12.97
01/02 18:00      0.00     41.27      5.93    175162     12.73
01/02 19:00      0.00     41.12      5.86    173664     12.57
01/02 20:00      0.00     40.88      5.56    171280     12.57
01/02 21:00      0.00     40.84      5.79    170884     12.49
01/02 22:00      0.00     41.06      5.69    173066     12.41
01/02 23:00      0.00     41.10      5.64    173464     12.41